sensor_id;sensor_type;location;lat;lon;timestamp;temperature;humidity
17146;DHT22;8688;54.444;18.444;2023-03-12T00:01:58;0.20;99.90
17146;DHT22;8688;54.444;18.444;2023-03-12T00:04:25;0.20;99.90
17146;DHT22;8688;54.444;18.444;2023-03-12T00:06:55;0.30;99.90
17146;DHT22;8688;54.444;18.444;2023-03-12T00:09:22;0.30;99.90
17146;DHT22;8688;54.444;18.444;2023-03-12T00:11:49;0.30;99.90
17146;DHT22;8688;54.444;18.444;2023-03-12T00:14:17;0.30;99.90
17146;DHT22;8688;54.444;18.444;2023-03-12T00:16:44;0.30;99.90
17146;DHT22;8688;54.444;18.444;2023-03-12T00:19:12;0.40;99.90
17146;DHT22;8688;54.444;18.444;2023-03-12T00:21:39;0.50;99.90
17146;DHT22;8688;54.444;18.444;2023-03-12T00:24:08;0.50;99.90
17146;DHT22;8688;54.444;18.444;2023-03-12T00:26:36;0.50;99.90
17146;DHT22;8688;54.444;18.444;2023-03-12T00:29:03;0.60;62.70
17146;DHT22;8688;54.444;18.444;2023-03-12T00:31:32;0.60;19.20
17146;DHT22;8688;54.444;18.444;2023-03-12T00:34:00;0.60;1.00
17146;DHT22;8688;54.444;18.444;2023-03-12T00:36:29;0.60;1.00
17146;DHT22;8688;54.444;18.444;2023-03-12T00:38:58;0.70;1.00
17146;DHT22;8688;54.444;18.444;2023-03-12T00:41:27;0.70;1.00
17146;DHT22;8688;54.444;18.444;2023-03-12T00:43:55;0.70;1.00
17146;DHT22;8688;54.444;18.444;2023-03-12T00:46:24;0.70;1.00
17146;DHT22;8688;54.444;18.444;2023-03-12T00:48:51;0.70;92.50
17146;DHT22;8688;54.444;18.444;2023-03-12T00:51:19;0.60;99.90
17146;DHT22;8688;54.444;18.444;2023-03-12T00:53:47;0.50;99.90
17146;DHT22;8688;54.444;18.444;2023-03-12T00:56:15;0.40;99.90
17146;DHT22;8688;54.444;18.444;2023-03-12T00:58:44;0.30;99.90
17146;DHT22;8688;54.444;18.444;2023-03-12T01:01:11;0.20;99.90
17146;DHT22;8688;54.444;18.444;2023-03-12T01:03:38;0.20;99.90
17146;DHT22;8688;54.444;18.444;2023-03-12T01:06:06;0.10;99.90
17146;DHT22;8688;54.444;18.444;2023-03-12T01:08:34;0.10;99.90
17146;DHT22;8688;54.444;18.444;2023-03-12T01:11:01;0.10;99.90
17146;DHT22;8688;54.444;18.444;2023-03-12T01:13:29;0.10;99.90
17146;DHT22;8688;54.444;18.444;2023-03-12T01:15:58;0.10;99.90
17146;DHT22;8688;54.444;18.444;2023-03-12T01:18:26;0.10;99.90
17146;DHT22;8688;54.444;18.444;2023-03-12T01:20:53;0.10;99.90
17146;DHT22;8688;54.444;18.444;2023-03-12T01:23:21;0.10;99.90
17146;DHT22;8688;54.444;18.444;2023-03-12T01:25:48;0.10;99.90
17146;DHT22;8688;54.444;18.444;2023-03-12T01:28:16;0.10;99.90
17146;DHT22;8688;54.444;18.444;2023-03-12T01:30:44;0.10;99.90
17146;DHT22;8688;54.444;18.444;2023-03-12T01:33:13;0.10;99.90
17146;DHT22;8688;54.444;18.444;2023-03-12T01:35:42;0.00;99.90
17146;DHT22;8688;54.444;18.444;2023-03-12T01:38:14;0.10;99.90
17146;DHT22;8688;54.444;18.444;2023-03-12T01:40:43;0.00;99.90
17146;DHT22;8688;54.444;18.444;2023-03-12T01:43:25;0.00;99.90
17146;DHT22;8688;54.444;18.444;2023-03-12T01:46:06;0.10;99.90
17146;DHT22;8688;54.444;18.444;2023-03-12T01:48:38;0.00;99.90
17146;DHT22;8688;54.444;18.444;2023-03-12T01:51:08;0.00;99.90
17146;DHT22;8688;54.444;18.444;2023-03-12T01:53:37;0.10;99.90
17146;DHT22;8688;54.444;18.444;2023-03-12T01:56:07;0.10;99.90
17146;DHT22;8688;54.444;18.444;2023-03-12T01:58:37;0.10;99.90
17146;DHT22;8688;54.444;18.444;2023-03-12T02:01:06;0.00;99.90
17146;DHT22;8688;54.444;18.444;2023-03-12T02:03:35;0.00;99.90
17146;DHT22;8688;54.444;18.444;2023-03-12T02:06:06;-0.10;99.90
17146;DHT22;8688;54.444;18.444;2023-03-12T02:08:36;-0.10;99.90
17146;DHT22;8688;54.444;18.444;2023-03-12T02:11:04;-0.10;99.90
17146;DHT22;8688;54.444;18.444;2023-03-12T02:13:32;-0.20;99.90
17146;DHT22;8688;54.444;18.444;2023-03-12T02:15:59;-0.20;1.00
17146;DHT22;8688;54.444;18.444;2023-03-12T02:18:27;-0.30;1.00
17146;DHT22;8688;54.444;18.444;2023-03-12T02:21:03;-0.30;1.00
17146;DHT22;8688;54.444;18.444;2023-03-12T02:23:39;-0.30;1.00
17146;DHT22;8688;54.444;18.444;2023-03-12T02:26:10;-0.30;1.00
17146;DHT22;8688;54.444;18.444;2023-03-12T02:28:39;-0.40;1.00
17146;DHT22;8688;54.444;18.444;2023-03-12T02:31:12;-0.40;1.00
17146;DHT22;8688;54.444;18.444;2023-03-12T02:33:40;-0.40;1.00
17146;DHT22;8688;54.444;18.444;2023-03-12T02:36:08;-0.40;1.00
17146;DHT22;8688;54.444;18.444;2023-03-12T02:38:40;-0.50;1.00
17146;DHT22;8688;54.444;18.444;2023-03-12T02:41:17;-0.50;1.00
17146;DHT22;8688;54.444;18.444;2023-03-12T02:43:49;-0.50;1.00
17146;DHT22;8688;54.444;18.444;2023-03-12T02:46:18;-0.50;1.00
17146;DHT22;8688;54.444;18.444;2023-03-12T02:48:46;-0.50;1.00
17146;DHT22;8688;54.444;18.444;2023-03-12T02:51:13;-0.50;1.00
17146;DHT22;8688;54.444;18.444;2023-03-12T02:53:41;-0.50;1.00
17146;DHT22;8688;54.444;18.444;2023-03-12T02:56:08;-0.60;1.00
17146;DHT22;8688;54.444;18.444;2023-03-12T02:58:37;-0.60;1.00
17146;DHT22;8688;54.444;18.444;2023-03-12T03:01:05;-0.60;1.00
17146;DHT22;8688;54.444;18.444;2023-03-12T03:03:32;-0.70;1.00
17146;DHT22;8688;54.444;18.444;2023-03-12T03:05:59;-0.70;1.00
17146;DHT22;8688;54.444;18.444;2023-03-12T03:08:27;-0.70;1.00
17146;DHT22;8688;54.444;18.444;2023-03-12T03:10:55;-0.70;1.00
17146;DHT22;8688;54.444;18.444;2023-03-12T03:13:22;-0.70;1.00
17146;DHT22;8688;54.444;18.444;2023-03-12T03:15:51;-0.70;1.00
17146;DHT22;8688;54.444;18.444;2023-03-12T03:18:19;-0.70;1.00
17146;DHT22;8688;54.444;18.444;2023-03-12T03:20:54;-0.70;1.00
17146;DHT22;8688;54.444;18.444;2023-03-12T03:23:21;-0.70;99.90
17146;DHT22;8688;54.444;18.444;2023-03-12T03:25:49;-0.70;99.90
17146;DHT22;8688;54.444;18.444;2023-03-12T03:28:17;-0.80;99.90
17146;DHT22;8688;54.444;18.444;2023-03-12T03:30:45;-0.80;99.90
17146;DHT22;8688;54.444;18.444;2023-03-12T03:33:14;-0.80;99.90
17146;DHT22;8688;54.444;18.444;2023-03-12T03:35:42;-0.80;1.00
17146;DHT22;8688;54.444;18.444;2023-03-12T03:38:09;-0.70;1.00
17146;DHT22;8688;54.444;18.444;2023-03-12T03:40:36;-0.70;99.90
17146;DHT22;8688;54.444;18.444;2023-03-12T03:43:04;-0.70;99.90
17146;DHT22;8688;54.444;18.444;2023-03-12T03:45:32;-0.70;99.90
17146;DHT22;8688;54.444;18.444;2023-03-12T03:48:00;-0.70;99.90
17146;DHT22;8688;54.444;18.444;2023-03-12T03:50:28;-0.80;99.90
17146;DHT22;8688;54.444;18.444;2023-03-12T03:52:56;-0.80;99.90
17146;DHT22;8688;54.444;18.444;2023-03-12T03:55:23;-0.80;99.90
17146;DHT22;8688;54.444;18.444;2023-03-12T03:57:51;-0.80;99.90
17146;DHT22;8688;54.444;18.444;2023-03-12T04:00:19;-0.80;99.90
17146;DHT22;8688;54.444;18.444;2023-03-12T04:02:46;-0.70;99.90
17146;DHT22;8688;54.444;18.444;2023-03-12T04:05:14;-0.70;99.90
17146;DHT22;8688;54.444;18.444;2023-03-12T04:07:45;-0.70;99.90
17146;DHT22;8688;54.444;18.444;2023-03-12T04:10:13;-0.70;99.90
17146;DHT22;8688;54.444;18.444;2023-03-12T04:12:41;-0.70;99.90
17146;DHT22;8688;54.444;18.444;2023-03-12T04:15:08;-0.70;99.90
17146;DHT22;8688;54.444;18.444;2023-03-12T04:17:36;-0.70;99.90
17146;DHT22;8688;54.444;18.444;2023-03-12T04:20:05;-0.70;99.90
17146;DHT22;8688;54.444;18.444;2023-03-12T04:22:34;-0.70;99.90
17146;DHT22;8688;54.444;18.444;2023-03-12T04:25:05;-0.80;99.90
17146;DHT22;8688;54.444;18.444;2023-03-12T04:27:34;-0.80;99.90
17146;DHT22;8688;54.444;18.444;2023-03-12T04:30:02;-0.80;99.90
17146;DHT22;8688;54.444;18.444;2023-03-12T04:32:29;-0.80;99.90
17146;DHT22;8688;54.444;18.444;2023-03-12T04:34:57;-0.80;99.90
17146;DHT22;8688;54.444;18.444;2023-03-12T04:37:24;-0.80;99.90
17146;DHT22;8688;54.444;18.444;2023-03-12T04:39:51;-0.90;99.90
17146;DHT22;8688;54.444;18.444;2023-03-12T04:42:20;-0.90;99.90
17146;DHT22;8688;54.444;18.444;2023-03-12T04:44:49;-1.00;99.90
17146;DHT22;8688;54.444;18.444;2023-03-12T04:47:17;-1.00;99.90
17146;DHT22;8688;54.444;18.444;2023-03-12T04:49:45;-1.00;99.90
17146;DHT22;8688;54.444;18.444;2023-03-12T04:52:12;-1.10;99.90
17146;DHT22;8688;54.444;18.444;2023-03-12T04:54:40;-1.10;99.90
17146;DHT22;8688;54.444;18.444;2023-03-12T04:57:07;-1.10;99.90
17146;DHT22;8688;54.444;18.444;2023-03-12T04:59:36;-1.20;99.90
17146;DHT22;8688;54.444;18.444;2023-03-12T05:02:03;-1.20;99.90
17146;DHT22;8688;54.444;18.444;2023-03-12T05:04:31;-1.20;99.90
17146;DHT22;8688;54.444;18.444;2023-03-12T05:06:58;-1.10;99.90
17146;DHT22;8688;54.444;18.444;2023-03-12T05:09:26;-1.10;99.90
17146;DHT22;8688;54.444;18.444;2023-03-12T05:11:53;-1.10;99.90
17146;DHT22;8688;54.444;18.444;2023-03-12T05:14:21;-1.10;99.90
17146;DHT22;8688;54.444;18.444;2023-03-12T05:16:49;-1.10;99.90
17146;DHT22;8688;54.444;18.444;2023-03-12T05:19:17;-1.10;99.90
17146;DHT22;8688;54.444;18.444;2023-03-12T05:21:44;-1.20;99.90
17146;DHT22;8688;54.444;18.444;2023-03-12T05:24:12;-1.20;99.90
17146;DHT22;8688;54.444;18.444;2023-03-12T05:26:39;-1.20;99.90
17146;DHT22;8688;54.444;18.444;2023-03-12T05:29:07;-1.10;99.90
17146;DHT22;8688;54.444;18.444;2023-03-12T05:31:34;-1.10;99.90
17146;DHT22;8688;54.444;18.444;2023-03-12T05:34:04;-1.10;99.90
17146;DHT22;8688;54.444;18.444;2023-03-12T05:36:31;-1.10;99.90
17146;DHT22;8688;54.444;18.444;2023-03-12T05:38:59;-1.10;99.90
17146;DHT22;8688;54.444;18.444;2023-03-12T05:41:28;-1.10;99.90
17146;DHT22;8688;54.444;18.444;2023-03-12T05:43:57;-1.10;99.90
17146;DHT22;8688;54.444;18.444;2023-03-12T05:46:26;-1.10;99.90
17146;DHT22;8688;54.444;18.444;2023-03-12T05:48:54;-1.10;99.90
17146;DHT22;8688;54.444;18.444;2023-03-12T05:51:22;-1.10;99.90
17146;DHT22;8688;54.444;18.444;2023-03-12T05:53:50;-1.10;99.90
17146;DHT22;8688;54.444;18.444;2023-03-12T05:56:17;-1.10;99.90
17146;DHT22;8688;54.444;18.444;2023-03-12T05:58:47;-1.00;63.70
17146;DHT22;8688;54.444;18.444;2023-03-12T06:01:17;-1.00;1.00
17146;DHT22;8688;54.444;18.444;2023-03-12T06:03:45;-1.00;1.00
17146;DHT22;8688;54.444;18.444;2023-03-12T06:06:13;-0.90;1.00
17146;DHT22;8688;54.444;18.444;2023-03-12T06:08:42;-0.90;99.90
17146;DHT22;8688;54.444;18.444;2023-03-12T06:11:09;-0.80;99.90
17146;DHT22;8688;54.444;18.444;2023-03-12T06:13:37;-0.70;99.90
17146;DHT22;8688;54.444;18.444;2023-03-12T06:16:06;-0.70;99.90
17146;DHT22;8688;54.444;18.444;2023-03-12T06:18:35;-0.50;1.00
17146;DHT22;8688;54.444;18.444;2023-03-12T06:21:10;-0.50;99.90
17146;DHT22;8688;54.444;18.444;2023-03-12T06:23:38;-0.50;1.00
17146;DHT22;8688;54.444;18.444;2023-03-12T06:26:10;-0.50;1.00
17146;DHT22;8688;54.444;18.444;2023-03-12T06:28:38;-0.50;99.90
17146;DHT22;8688;54.444;18.444;2023-03-12T06:31:06;-0.60;99.90
17146;DHT22;8688;54.444;18.444;2023-03-12T06:33:34;-0.60;99.90
17146;DHT22;8688;54.444;18.444;2023-03-12T06:36:04;-0.70;1.00
17146;DHT22;8688;54.444;18.444;2023-03-12T06:38:32;-0.80;99.90
17146;DHT22;8688;54.444;18.444;2023-03-12T06:41:00;-0.80;1.00
17146;DHT22;8688;54.444;18.444;2023-03-12T06:43:31;-0.90;1.00
17146;DHT22;8688;54.444;18.444;2023-03-12T06:45:59;-0.90;1.00
17146;DHT22;8688;54.444;18.444;2023-03-12T06:48:30;-1.00;1.00
17146;DHT22;8688;54.444;18.444;2023-03-12T06:50:58;-1.00;1.00
17146;DHT22;8688;54.444;18.444;2023-03-12T06:53:25;-1.10;1.00
17146;DHT22;8688;54.444;18.444;2023-03-12T06:55:53;-1.00;1.00
17146;DHT22;8688;54.444;18.444;2023-03-12T06:58:20;-0.80;1.00
17146;DHT22;8688;54.444;18.444;2023-03-12T07:00:49;-0.80;99.90
17146;DHT22;8688;54.444;18.444;2023-03-12T07:03:17;-0.80;1.00
17146;DHT22;8688;54.444;18.444;2023-03-12T07:05:45;-0.80;99.90
17146;DHT22;8688;54.444;18.444;2023-03-12T07:08:13;-0.80;45.10
17146;DHT22;8688;54.444;18.444;2023-03-12T07:10:40;-0.80;99.90
17146;DHT22;8688;54.444;18.444;2023-03-12T07:13:08;-0.60;1.00
17146;DHT22;8688;54.444;18.444;2023-03-12T07:15:36;-0.30;99.90
17146;DHT22;8688;54.444;18.444;2023-03-12T07:18:05;0.00;1.00
17146;DHT22;8688;54.444;18.444;2023-03-12T07:20:36;0.00;99.90
17146;DHT22;8688;54.444;18.444;2023-03-12T07:23:04;-0.10;99.90
17146;DHT22;8688;54.444;18.444;2023-03-12T07:25:34;-0.10;1.00
17146;DHT22;8688;54.444;18.444;2023-03-12T07:28:02;-0.10;1.00
17146;DHT22;8688;54.444;18.444;2023-03-12T07:30:29;0.00;1.00
17146;DHT22;8688;54.444;18.444;2023-03-12T07:32:58;-0.20;99.90
17146;DHT22;8688;54.444;18.444;2023-03-12T07:35:27;-0.70;1.00
17146;DHT22;8688;54.444;18.444;2023-03-12T07:37:55;-0.90;99.90
17146;DHT22;8688;54.444;18.444;2023-03-12T07:40:22;-1.00;1.00
17146;DHT22;8688;54.444;18.444;2023-03-12T07:42:50;-1.20;1.00
17146;DHT22;8688;54.444;18.444;2023-03-12T07:45:18;-1.20;1.00
17146;DHT22;8688;54.444;18.444;2023-03-12T07:47:46;-1.10;99.90
17146;DHT22;8688;54.444;18.444;2023-03-12T07:50:14;-1.00;99.90
17146;DHT22;8688;54.444;18.444;2023-03-12T07:52:44;-0.80;99.90
17146;DHT22;8688;54.444;18.444;2023-03-12T07:55:11;-0.70;99.90
17146;DHT22;8688;54.444;18.444;2023-03-12T07:57:39;-0.50;99.90
17146;DHT22;8688;54.444;18.444;2023-03-12T08:00:08;-0.40;1.00
17146;DHT22;8688;54.444;18.444;2023-03-12T08:02:35;-0.40;1.00
17146;DHT22;8688;54.444;18.444;2023-03-12T08:05:04;-0.30;1.00
17146;DHT22;8688;54.444;18.444;2023-03-12T08:07:31;-0.20;1.00
17146;DHT22;8688;54.444;18.444;2023-03-12T08:10:03;0.00;1.00
17146;DHT22;8688;54.444;18.444;2023-03-12T08:12:32;0.20;1.00
17146;DHT22;8688;54.444;18.444;2023-03-12T08:14:59;0.50;1.00
17146;DHT22;8688;54.444;18.444;2023-03-12T08:17:27;0.60;99.90
17146;DHT22;8688;54.444;18.444;2023-03-12T08:19:55;0.50;99.90
17146;DHT22;8688;54.444;18.444;2023-03-12T08:22:22;0.40;40.10
17146;DHT22;8688;54.444;18.444;2023-03-12T08:24:50;0.30;1.00
17146;DHT22;8688;54.444;18.444;2023-03-12T08:27:19;0.10;99.90
17146;DHT22;8688;54.444;18.444;2023-03-12T08:29:46;0.10;1.00
17146;DHT22;8688;54.444;18.444;2023-03-12T08:32:13;0.10;99.90
17146;DHT22;8688;54.444;18.444;2023-03-12T08:34:41;0.10;99.90
17146;DHT22;8688;54.444;18.444;2023-03-12T08:37:08;0.10;99.90
17146;DHT22;8688;54.444;18.444;2023-03-12T08:39:36;0.20;1.00
17146;DHT22;8688;54.444;18.444;2023-03-12T08:42:04;0.30;1.00
17146;DHT22;8688;54.444;18.444;2023-03-12T08:44:34;0.40;99.90
17146;DHT22;8688;54.444;18.444;2023-03-12T08:47:01;0.40;18.40
17146;DHT22;8688;54.444;18.444;2023-03-12T08:49:28;0.50;1.00
17146;DHT22;8688;54.444;18.444;2023-03-12T08:51:56;0.60;99.90
17146;DHT22;8688;54.444;18.444;2023-03-12T08:54:23;0.80;99.90
17146;DHT22;8688;54.444;18.444;2023-03-12T08:56:52;0.80;1.00
17146;DHT22;8688;54.444;18.444;2023-03-12T08:59:20;0.80;1.00
17146;DHT22;8688;54.444;18.444;2023-03-12T09:01:49;0.70;1.00
17146;DHT22;8688;54.444;18.444;2023-03-12T09:04:17;0.70;1.00
17146;DHT22;8688;54.444;18.444;2023-03-12T09:06:44;0.70;1.00
17146;DHT22;8688;54.444;18.444;2023-03-12T09:09:12;0.70;1.00
17146;DHT22;8688;54.444;18.444;2023-03-12T09:11:39;0.70;99.90
17146;DHT22;8688;54.444;18.444;2023-03-12T09:14:08;0.80;99.90
17146;DHT22;8688;54.444;18.444;2023-03-12T09:16:35;0.80;99.90
17146;DHT22;8688;54.444;18.444;2023-03-12T09:19:05;0.90;99.90
17146;DHT22;8688;54.444;18.444;2023-03-12T09:21:32;1.00;99.90
17146;DHT22;8688;54.444;18.444;2023-03-12T09:23:59;1.20;99.90
17146;DHT22;8688;54.444;18.444;2023-03-12T09:26:27;1.30;99.90
17146;DHT22;8688;54.444;18.444;2023-03-12T09:28:55;1.40;99.90
17146;DHT22;8688;54.444;18.444;2023-03-12T09:31:24;1.40;99.90
17146;DHT22;8688;54.444;18.444;2023-03-12T09:33:54;1.30;99.90
17146;DHT22;8688;54.444;18.444;2023-03-12T09:36:23;1.20;99.90
17146;DHT22;8688;54.444;18.444;2023-03-12T09:38:52;1.30;99.90
17146;DHT22;8688;54.444;18.444;2023-03-12T09:41:22;1.30;99.90
17146;DHT22;8688;54.444;18.444;2023-03-12T09:43:53;1.30;86.80
17146;DHT22;8688;54.444;18.444;2023-03-12T09:46:25;1.30;1.90
17146;DHT22;8688;54.444;18.444;2023-03-12T09:48:56;1.40;21.40
17146;DHT22;8688;54.444;18.444;2023-03-12T09:51:29;1.40;1.00
17146;DHT22;8688;54.444;18.444;2023-03-12T09:54:01;1.60;1.00
17146;DHT22;8688;54.444;18.444;2023-03-12T09:56:29;1.70;1.00
17146;DHT22;8688;54.444;18.444;2023-03-12T09:58:57;1.90;1.00
17146;DHT22;8688;54.444;18.444;2023-03-12T10:01:36;2.00;17.20
17146;DHT22;8688;54.444;18.444;2023-03-12T10:04:17;2.00;24.60
17146;DHT22;8688;54.444;18.444;2023-03-12T10:06:52;1.70;3.30
17146;DHT22;8688;54.444;18.444;2023-03-12T10:09:44;1.40;1.00
17146;DHT22;8688;54.444;18.444;2023-03-12T10:12:23;1.40;1.00
17146;DHT22;8688;54.444;18.444;2023-03-12T10:15:00;1.50;1.00
17146;DHT22;8688;54.444;18.444;2023-03-12T10:17:40;1.50;1.00
17146;DHT22;8688;54.444;18.444;2023-03-12T10:20:30;1.60;1.00
17146;DHT22;8688;54.444;18.444;2023-03-12T10:23:06;1.40;1.00
17146;DHT22;8688;54.444;18.444;2023-03-12T10:25:41;1.40;1.00
17146;DHT22;8688;54.444;18.444;2023-03-12T10:28:16;1.40;1.00
17146;DHT22;8688;54.444;18.444;2023-03-12T10:30:49;1.30;1.00
17146;DHT22;8688;54.444;18.444;2023-03-12T10:33:21;1.20;1.00
17146;DHT22;8688;54.444;18.444;2023-03-12T10:35:52;1.20;1.00
17146;DHT22;8688;54.444;18.444;2023-03-12T10:38:26;1.10;1.00
17146;DHT22;8688;54.444;18.444;2023-03-12T10:40:57;1.20;1.00
17146;DHT22;8688;54.444;18.444;2023-03-12T10:43:25;1.40;1.00
17146;DHT22;8688;54.444;18.444;2023-03-12T10:46:01;1.70;1.00
17146;DHT22;8688;54.444;18.444;2023-03-12T10:48:36;2.00;1.00
17146;DHT22;8688;54.444;18.444;2023-03-12T10:51:06;2.10;1.00
17146;DHT22;8688;54.444;18.444;2023-03-12T10:53:36;2.10;1.00
17146;DHT22;8688;54.444;18.444;2023-03-12T10:56:05;2.10;1.00
17146;DHT22;8688;54.444;18.444;2023-03-12T10:58:36;2.00;1.00
17146;DHT22;8688;54.444;18.444;2023-03-12T11:01:06;2.10;1.00
17146;DHT22;8688;54.444;18.444;2023-03-12T11:03:39;2.30;1.00
17146;DHT22;8688;54.444;18.444;2023-03-12T11:06:08;2.50;1.00
17146;DHT22;8688;54.444;18.444;2023-03-12T11:08:41;2.50;1.00
17146;DHT22;8688;54.444;18.444;2023-03-12T11:11:11;2.30;1.00
17146;DHT22;8688;54.444;18.444;2023-03-12T11:13:40;2.00;1.00
17146;DHT22;8688;54.444;18.444;2023-03-12T11:16:24;2.00;1.00
17146;DHT22;8688;54.444;18.444;2023-03-12T11:18:55;2.10;1.00
17146;DHT22;8688;54.444;18.444;2023-03-12T11:21:24;2.00;1.00
17146;DHT22;8688;54.444;18.444;2023-03-12T11:24:10;2.00;1.00
17146;DHT22;8688;54.444;18.444;2023-03-12T11:26:46;2.00;1.00
17146;DHT22;8688;54.444;18.444;2023-03-12T11:29:23;2.00;1.00
17146;DHT22;8688;54.444;18.444;2023-03-12T11:31:58;2.10;1.00
17146;DHT22;8688;54.444;18.444;2023-03-12T11:34:27;2.10;1.00
17146;DHT22;8688;54.444;18.444;2023-03-12T11:37:03;2.10;1.00
17146;DHT22;8688;54.444;18.444;2023-03-12T11:39:40;2.10;1.00
17146;DHT22;8688;54.444;18.444;2023-03-12T11:42:19;2.00;99.90
17146;DHT22;8688;54.444;18.444;2023-03-12T11:44:57;1.90;1.00
17146;DHT22;8688;54.444;18.444;2023-03-12T11:47:46;1.90;99.90
17146;DHT22;8688;54.444;18.444;2023-03-12T11:50:26;1.90;99.90
17146;DHT22;8688;54.444;18.444;2023-03-12T11:53:11;2.00;99.90
17146;DHT22;8688;54.444;18.444;2023-03-12T11:55:52;2.10;99.90
17146;DHT22;8688;54.444;18.444;2023-03-12T11:58:33;2.10;99.90
17146;DHT22;8688;54.444;18.444;2023-03-12T12:01:10;2.20;99.90
17146;DHT22;8688;54.444;18.444;2023-03-12T12:04:12;2.30;99.90
17146;DHT22;8688;54.444;18.444;2023-03-12T12:06:48;2.30;99.90
17146;DHT22;8688;54.444;18.444;2023-03-12T12:09:27;2.40;99.90
17146;DHT22;8688;54.444;18.444;2023-03-12T12:12:12;2.50;99.90
17146;DHT22;8688;54.444;18.444;2023-03-12T12:14:59;2.40;99.90
17146;DHT22;8688;54.444;18.444;2023-03-12T12:17:39;2.40;99.90
17146;DHT22;8688;54.444;18.444;2023-03-12T12:20:25;2.50;99.90
17146;DHT22;8688;54.444;18.444;2023-03-12T12:23:06;2.60;99.90
17146;DHT22;8688;54.444;18.444;2023-03-12T12:25:51;2.60;99.90
17146;DHT22;8688;54.444;18.444;2023-03-12T12:31:29;2.70;99.90
17146;DHT22;8688;54.444;18.444;2023-03-12T12:34:20;2.70;99.90
17146;DHT22;8688;54.444;18.444;2023-03-12T12:36:53;2.60;99.90
17146;DHT22;8688;54.444;18.444;2023-03-12T12:39:30;2.50;99.90
17146;DHT22;8688;54.444;18.444;2023-03-12T12:42:03;2.60;99.90
17146;DHT22;8688;54.444;18.444;2023-03-12T12:44:35;2.80;99.90
17146;DHT22;8688;54.444;18.444;2023-03-12T12:47:06;2.90;99.90
17146;DHT22;8688;54.444;18.444;2023-03-12T12:49:41;3.00;99.90
17146;DHT22;8688;54.444;18.444;2023-03-12T12:52:15;3.00;99.90
17146;DHT22;8688;54.444;18.444;2023-03-12T12:54:53;2.80;99.90
17146;DHT22;8688;54.444;18.444;2023-03-12T12:57:26;2.90;99.90
17146;DHT22;8688;54.444;18.444;2023-03-12T13:02:56;2.80;99.90
17146;DHT22;8688;54.444;18.444;2023-03-12T13:05:26;2.90;99.90
17146;DHT22;8688;54.444;18.444;2023-03-12T13:07:54;3.10;99.90
17146;DHT22;8688;54.444;18.444;2023-03-12T13:10:40;3.30;99.90
17146;DHT22;8688;54.444;18.444;2023-03-12T13:13:12;3.30;99.90
17146;DHT22;8688;54.444;18.444;2023-03-12T13:15:46;3.50;99.90
17146;DHT22;8688;54.444;18.444;2023-03-12T13:18:22;3.60;99.90
17146;DHT22;8688;54.444;18.444;2023-03-12T13:21:11;3.70;99.90
17146;DHT22;8688;54.444;18.444;2023-03-12T13:23:49;3.90;99.90
17146;DHT22;8688;54.444;18.444;2023-03-12T13:26:24;3.90;99.90
17146;DHT22;8688;54.444;18.444;2023-03-12T13:31:42;4.10;99.90
17146;DHT22;8688;54.444;18.444;2023-03-12T13:37:26;4.30;99.90
17146;DHT22;8688;54.444;18.444;2023-03-12T13:39:59;4.20;99.90
17146;DHT22;8688;54.444;18.444;2023-03-12T13:42:37;4.20;99.90
17146;DHT22;8688;54.444;18.444;2023-03-12T13:45:26;4.10;99.90
17146;DHT22;8688;54.444;18.444;2023-03-12T13:48:00;3.90;99.90
17146;DHT22;8688;54.444;18.444;2023-03-12T13:50:29;3.70;99.90
17146;DHT22;8688;54.444;18.444;2023-03-12T13:53:03;3.60;99.90
17146;DHT22;8688;54.444;18.444;2023-03-12T13:55:33;3.50;99.90
17146;DHT22;8688;54.444;18.444;2023-03-12T13:58:07;3.50;99.90
17146;DHT22;8688;54.444;18.444;2023-03-12T14:00:40;3.60;99.90
17146;DHT22;8688;54.444;18.444;2023-03-12T14:03:16;3.50;99.90
17146;DHT22;8688;54.444;18.444;2023-03-12T14:05:48;3.50;99.90
17146;DHT22;8688;54.444;18.444;2023-03-12T14:08:28;3.50;99.90
17146;DHT22;8688;54.444;18.444;2023-03-12T14:11:27;3.50;99.90
17146;DHT22;8688;54.444;18.444;2023-03-12T14:14:27;3.30;99.90
17146;DHT22;8688;54.444;18.444;2023-03-12T14:17:00;3.00;99.90
17146;DHT22;8688;54.444;18.444;2023-03-12T14:19:33;3.00;99.90
17146;DHT22;8688;54.444;18.444;2023-03-12T14:22:04;3.00;99.90
17146;DHT22;8688;54.444;18.444;2023-03-12T14:24:34;3.10;99.90
17146;DHT22;8688;54.444;18.444;2023-03-12T14:27:05;3.20;99.90
17146;DHT22;8688;54.444;18.444;2023-03-12T14:29:40;3.10;99.90
17146;DHT22;8688;54.444;18.444;2023-03-12T14:32:14;2.80;99.90
17146;DHT22;8688;54.444;18.444;2023-03-12T14:34:50;2.60;99.90
17146;DHT22;8688;54.444;18.444;2023-03-12T14:37:23;2.50;99.90
17146;DHT22;8688;54.444;18.444;2023-03-12T14:39:53;2.40;99.90
17146;DHT22;8688;54.444;18.444;2023-03-12T14:42:23;2.30;99.90
17146;DHT22;8688;54.444;18.444;2023-03-12T14:44:57;2.30;99.90
17146;DHT22;8688;54.444;18.444;2023-03-12T14:47:26;2.30;99.90
17146;DHT22;8688;54.444;18.444;2023-03-12T14:49:56;2.30;99.90
17146;DHT22;8688;54.444;18.444;2023-03-12T14:52:26;2.40;99.90
17146;DHT22;8688;54.444;18.444;2023-03-12T14:54:56;2.30;99.90
17146;DHT22;8688;54.444;18.444;2023-03-12T14:57:23;2.40;99.90
17146;DHT22;8688;54.444;18.444;2023-03-12T14:59:51;2.40;99.90
17146;DHT22;8688;54.444;18.444;2023-03-12T15:02:20;2.50;99.90
17146;DHT22;8688;54.444;18.444;2023-03-12T15:04:49;2.50;99.90
17146;DHT22;8688;54.444;18.444;2023-03-12T15:07:21;2.50;99.90
17146;DHT22;8688;54.444;18.444;2023-03-12T15:09:51;2.60;99.90
17146;DHT22;8688;54.444;18.444;2023-03-12T15:12:21;2.60;99.90
17146;DHT22;8688;54.444;18.444;2023-03-12T15:14:51;2.60;99.90
17146;DHT22;8688;54.444;18.444;2023-03-12T15:17:23;2.60;99.90
17146;DHT22;8688;54.444;18.444;2023-03-12T15:19:52;2.60;99.90
17146;DHT22;8688;54.444;18.444;2023-03-12T15:22:24;2.50;99.90
17146;DHT22;8688;54.444;18.444;2023-03-12T15:24:54;2.40;99.90
17146;DHT22;8688;54.444;18.444;2023-03-12T15:27:31;2.40;99.90
17146;DHT22;8688;54.444;18.444;2023-03-12T15:30:00;2.40;99.90
17146;DHT22;8688;54.444;18.444;2023-03-12T15:32:28;2.30;99.90
17146;DHT22;8688;54.444;18.444;2023-03-12T15:34:56;2.30;99.90
17146;DHT22;8688;54.444;18.444;2023-03-12T15:37:27;2.30;99.90
17146;DHT22;8688;54.444;18.444;2023-03-12T15:39:59;2.20;99.90
17146;DHT22;8688;54.444;18.444;2023-03-12T15:42:36;2.10;99.90
17146;DHT22;8688;54.444;18.444;2023-03-12T15:45:17;2.00;99.90
17146;DHT22;8688;54.444;18.444;2023-03-12T15:47:49;1.90;99.90
17146;DHT22;8688;54.444;18.444;2023-03-12T15:50:20;1.80;99.90
17146;DHT22;8688;54.444;18.444;2023-03-12T15:53:01;1.80;99.90
17146;DHT22;8688;54.444;18.444;2023-03-12T15:55:30;1.70;99.90
17146;DHT22;8688;54.444;18.444;2023-03-12T15:57:59;1.70;99.90
17146;DHT22;8688;54.444;18.444;2023-03-12T16:00:28;1.70;99.90
17146;DHT22;8688;54.444;18.444;2023-03-12T16:02:58;1.70;99.90
17146;DHT22;8688;54.444;18.444;2023-03-12T16:05:29;1.60;99.90
17146;DHT22;8688;54.444;18.444;2023-03-12T16:08:08;1.50;99.90
17146;DHT22;8688;54.444;18.444;2023-03-12T16:10:38;1.50;99.90
17146;DHT22;8688;54.444;18.444;2023-03-12T16:13:06;1.50;99.90
17146;DHT22;8688;54.444;18.444;2023-03-12T16:15:36;1.30;99.90
17146;DHT22;8688;54.444;18.444;2023-03-12T16:18:11;1.30;99.90
17146;DHT22;8688;54.444;18.444;2023-03-12T16:20:41;1.20;99.90